Time;durP1;ratioP1;P1;durP2;ratioP2;P2;SDS_P1;SDS_P2;PMS_P1;PMS_P2;Temp;Humidity;BMP_temperature;BMP_pressure;BME280_temperature;BME280_humidity;BME280_pressure;Samples;Min_cycle;Max_cycle;Signal;HPM_P1;HPM_P2
2022/07/08 07:29:57;;;;;;;;;;;12.20;62.10;;;;;;4982802;28;19982;-66
2022/07/08 07:32:24;;;;;;;;;;;12.20;63.20;;;;;;4988820;28;19922;-67
2022/07/08 07:34:50;;;;;;;;;;;12.20;63.60;;;;;;4999728;28;20573;-67
2022/07/08 07:37:17;;;;;;;;;;;12.20;63.40;;;;;;4996733;28;19909;-67
2022/07/08 07:39:43;;;;;;;;;;;12.10;64.30;;;;;;4999115;28;19988;-67
2022/07/08 07:42:10;;;;;;;;;;;12.10;63.70;;;;;;4986532;28;19917;-66
2022/07/08 07:44:36;;;;;;;;;;;12.00;63.40;;;;;;4995481;28;20351;-66
2022/07/08 07:47:03;;;;;;;;;;;12.00;64.70;;;;;;4996317;28;19913;-66
2022/07/08 07:49:30;;;;;;;;;;;12.00;63.70;;;;;;4993654;28;19917;-66
2022/07/08 07:51:56;;;;;;;;;;;12.00;64.00;;;;;;4994788;28;19918;-66
2022/07/08 07:54:23;;;;;;;;;;;12.00;63.10;;;;;;4993917;28;19910;-67
2022/07/08 07:56:49;;;;;;;;;;;12.00;63.50;;;;;;4992330;28;20561;-67
2022/07/08 07:59:16;;;;;;;;;;;12.00;63.80;;;;;;4989249;28;20000;-67
2022/07/08 08:01:42;;;;;;;;;;;11.90;64.10;;;;;;4994822;28;20334;-68
2022/07/08 08:04:09;;;;;;;;;;;11.90;64.40;;;;;;4991981;28;19924;-66
2022/07/08 08:06:36;;;;;;;;;;;11.90;63.90;;;;;;4997433;28;19984;-66
2022/07/08 08:09:02;;;;;;;;;;;11.90;63.90;;;;;;4995645;28;19964;-65
2022/07/08 08:11:29;;;;;;;;;;;11.90;64.20;;;;;;4995595;28;20360;-66
2022/07/08 08:13:56;;;;;;;;;;;11.80;64.20;;;;;;4974219;28;20360;-65
2022/07/08 08:16:22;;;;;;;;;;;11.80;64.10;;;;;;4991216;28;19953;-67
2022/07/08 08:18:49;;;;;;;;;;;11.80;64.30;;;;;;4985570;28;19918;-66
2022/07/08 08:21:15;;;;;;;;;;;11.80;64.40;;;;;;5002229;28;19997;-67
2022/07/08 08:23:42;;;;;;;;;;;11.80;65.00;;;;;;4993845;28;19913;-67
2022/07/08 08:26:08;;;;;;;;;;;11.80;65.30;;;;;;4998310;28;19960;-65
2022/07/08 11:17:27;;;;;;;;;;;11.00;69.60;;;;;;4984268;28;19924;-66
2022/07/08 11:19:54;;;;;;;;;;;11.00;69.20;;;;;;4983986;28;19968;-65
2022/07/08 11:22:21;;;;;;;;;;;10.90;69.20;;;;;;4996053;28;19933;-66
2022/07/08 11:24:48;;;;;;;;;;;11.00;69.60;;;;;;4994950;28;19914;-66
2022/07/08 11:27:15;;;;;;;;;;;10.90;69.60;;;;;;4992734;28;19913;-66
2022/07/08 11:29:49;;;;;;;;;;;10.90;69.70;;;;;;4995215;28;19937;-65
2022/07/08 11:32:19;;;;;;;;;;;10.90;69.60;;;;;;4999378;28;21032;-65
2022/07/08 11:34:49;;;;;;;;;;;10.90;69.80;;;;;;4996580;28;19967;-65
2022/07/08 11:37:16;;;;;;;;;;;10.90;69.10;;;;;;4991575;28;19953;-65
2022/07/08 11:39:42;;;;;;;;;;;10.80;69.00;;;;;;4994884;28;19920;-66
2022/07/08 11:42:09;;;;;;;;;;;10.90;70.10;;;;;;4997429;28;19910;-65
2022/07/08 11:44:36;;;;;;;;;;;10.90;69.80;;;;;;5003182;28;19980;-66
2022/07/08 11:47:02;;;;;;;;;;;10.80;69.50;;;;;;4998816;28;20000;-65
2022/07/08 11:49:29;;;;;;;;;;;10.80;70.10;;;;;;4995865;28;20423;-65
2022/07/08 11:51:56;;;;;;;;;;;10.80;70.20;;;;;;5000038;28;20287;-65
2022/07/08 11:54:29;;;;;;;;;;;10.80;69.90;;;;;;5006537;28;19913;-65
2022/07/08 11:56:58;;;;;;;;;;;10.80;69.80;;;;;;4992622;28;20331;-65
2022/07/08 11:59:25;;;;;;;;;;;10.70;69.90;;;;;;4983638;28;19968;-65
2022/07/08 12:01:55;;;;;;;;;;;10.80;70.20;;;;;;4991485;28;20367;-65
2022/07/08 12:04:22;;;;;;;;;;;10.70;70.80;;;;;;4989501;28;20605;-65
2022/07/08 12:06:52;;;;;;;;;;;10.70;70.80;;;;;;4984712;28;20308;-65
2022/07/08 12:09:20;;;;;;;;;;;10.70;71.20;;;;;;4995492;28;19952;-66
2022/07/08 12:11:48;;;;;;;;;;;10.70;71.20;;;;;;4994431;28;19918;-66
2022/07/08 12:14:14;;;;;;;;;;;10.70;70.80;;;;;;4973223;28;19913;-67
2022/07/08 12:16:45;;;;;;;;;;;10.70;71.30;;;;;;4969209;28;20291;-66
2022/07/08 12:19:25;;;;;;;;;;;10.70;70.70;;;;;;4976338;28;20271;-67
2022/07/08 12:21:54;;;;;;;;;;;10.70;70.40;;;;;;4987486;28;19906;-66
2022/07/08 12:24:28;;;;;;;;;;;10.70;70.70;;;;;;4968332;28;19921;-65
2022/07/08 12:26:55;;;;;;;;;;;10.70;70.70;;;;;;4974477;28;20391;-66
2022/07/08 12:29:22;;;;;;;;;;;10.70;70.70;;;;;;4975763;28;19982;-66
2022/07/08 12:31:49;;;;;;;;;;;10.70;70.60;;;;;;4986567;28;19936;-66
2022/07/08 12:34:16;;;;;;;;;;;10.70;70.80;;;;;;4990620;28;19910;-66
2022/07/08 12:36:43;;;;;;;;;;;10.70;71.00;;;;;;4972571;28;20365;-65
2022/07/08 12:39:20;;;;;;;;;;;10.70;71.40;;;;;;4987148;28;20327;-66
2022/07/08 12:41:58;;;;;;;;;;;10.70;70.60;;;;;;4975321;28;19964;-66
2022/07/08 12:44:43;;;;;;;;;;;10.70;71.40;;;;;;4985143;28;19910;-66
2022/07/08 12:55:41;;;;;;;;;;;10.70;70.70;;;;;;5005919;28;19932;-65
2022/07/08 12:58:07;;;;;;;;;;;10.70;70.70;;;;;;4980436;28;19917;-65
2022/07/08 13:00:34;;;;;;;;;;;10.70;71.50;;;;;;4980173;28;19957;-65
2022/07/08 13:03:00;;;;;;;;;;;10.70;71.10;;;;;;4978335;28;19906;-66
2022/07/08 13:05:27;;;;;;;;;;;10.70;70.90;;;;;;4977265;28;19906;-66
2022/07/08 13:07:54;;;;;;;;;;;10.70;71.40;;;;;;4988553;28;19968;-67
2022/07/08 13:10:20;;;;;;;;;;;10.70;71.50;;;;;;4983040;28;19945;-66
2022/07/08 13:12:47;;;;;;;;;;;10.70;71.20;;;;;;4981946;28;20010;-65
2022/07/08 13:15:14;;;;;;;;;;;10.70;72.20;;;;;;4975694;28;19916;-66
2022/07/08 13:17:40;;;;;;;;;;;10.70;71.50;;;;;;4957516;28;19920;-65
2022/07/08 13:20:07;;;;;;;;;;;10.70;71.30;;;;;;4983210;28;19917;-66
2022/07/08 13:22:34;;;;;;;;;;;10.70;72.40;;;;;;4982086;28;19906;-66
2022/07/08 13:25:00;;;;;;;;;;;10.70;71.40;;;;;;4978632;28;19945;-66
2022/07/08 13:27:27;;;;;;;;;;;10.70;71.70;;;;;;4977665;28;19963;-66
2022/07/08 13:29:54;;;;;;;;;;;10.70;72.10;;;;;;4974595;28;19906;-66
2022/07/08 13:32:20;;;;;;;;;;;10.60;71.80;;;;;;4978619;28;19921;-66
2022/07/08 13:34:47;;;;;;;;;;;10.60;72.00;;;;;;4977572;28;19913;-66
2022/07/08 13:37:13;;;;;;;;;;;10.70;72.70;;;;;;4976951;28;19916;-65
2022/07/08 13:39:40;;;;;;;;;;;10.60;72.10;;;;;;4978710;28;19929;-66
2022/07/08 13:42:06;;;;;;;;;;;10.60;72.70;;;;;;4973446;28;19928;-64
2022/07/08 13:44:33;;;;;;;;;;;10.60;72.50;;;;;;4977784;28;20349;-67
2022/07/08 13:47:00;;;;;;;;;;;10.50;72.70;;;;;;4974708;28;19917;-64
2022/07/08 13:49:26;;;;;;;;;;;10.50;73.00;;;;;;4982955;28;19917;-64
2022/07/08 13:51:53;;;;;;;;;;;10.50;73.00;;;;;;4975211;28;19918;-65
2022/07/08 13:54:19;;;;;;;;;;;10.50;72.90;;;;;;4977861;28;20420;-65
2022/07/08 13:56:47;;;;;;;;;;;10.50;73.20;;;;;;4973936;28;20427;-65
2022/07/08 13:59:14;;;;;;;;;;;10.40;72.60;;;;;;4983350;28;19918;-65
2022/07/08 14:01:40;;;;;;;;;;;10.40;73.00;;;;;;4977515;28;19917;-66
2022/07/08 14:04:07;;;;;;;;;;;10.40;73.30;;;;;;4973984;28;19909;-66
2022/07/08 14:06:34;;;;;;;;;;;10.40;73.20;;;;;;4973238;28;20265;-66
2022/07/08 14:09:01;;;;;;;;;;;10.40;73.60;;;;;;4965707;28;19933;-66
2022/07/08 14:11:27;;;;;;;;;;;10.40;74.00;;;;;;4983570;28;20008;-66
2022/07/08 14:13:54;;;;;;;;;;;10.40;73.60;;;;;;4983195;28;19920;-67
2022/07/08 14:16:21;;;;;;;;;;;10.30;74.10;;;;;;4975555;28;19910;-64
2022/07/08 14:18:48;;;;;;;;;;;10.40;73.90;;;;;;4973187;28;19913;-64
2022/07/08 14:21:14;;;;;;;;;;;10.30;73.90;;;;;;4986620;28;19968;-66
2022/07/08 14:23:41;;;;;;;;;;;10.40;74.20;;;;;;4979708;28;19910;-64
2022/07/08 14:26:08;;;;;;;;;;;10.40;74.00;;;;;;4972325;28;20277;-63
2022/07/08 14:28:34;;;;;;;;;;;10.40;74.30;;;;;;4969402;28;19917;-65
2022/07/08 14:31:01;;;;;;;;;;;10.40;74.10;;;;;;4972543;28;20037;-65
2022/07/08 14:33:27;;;;;;;;;;;10.40;74.20;;;;;;4979997;28;19910;-66
2022/07/08 14:35:54;;;;;;;;;;;10.40;74.10;;;;;;4979963;28;19913;-65
2022/07/08 14:38:20;;;;;;;;;;;10.40;74.20;;;;;;4972830;28;19917;-66
2022/07/08 14:40:47;;;;;;;;;;;10.40;73.30;;;;;;4976947;28;19906;-65
2022/07/08 14:43:14;;;;;;;;;;;10.40;73.60;;;;;;4978954;28;20061;-64
2022/07/08 14:45:41;;;;;;;;;;;10.40;72.90;;;;;;4982697;28;19909;-65
2022/07/08 14:48:07;;;;;;;;;;;10.40;72.90;;;;;;4977935;28;20387;-64
2022/07/08 14:50:34;;;;;;;;;;;10.40;72.90;;;;;;4975143;28;20001;-66
2022/07/08 14:53:01;;;;;;;;;;;10.40;72.90;;;;;;4976017;28;19921;-65
2022/07/08 14:55:27;;;;;;;;;;;10.40;73.20;;;;;;4976931;28;19905;-65
2022/07/08 14:57:54;;;;;;;;;;;10.40;72.90;;;;;;4975847;28;20408;-65
2022/07/08 15:00:20;;;;;;;;;;;10.40;73.00;;;;;;4974837;28;19910;-66
2022/07/08 15:02:47;;;;;;;;;;;10.40;73.60;;;;;;4970536;28;20311;-65
2022/07/08 15:05:13;;;;;;;;;;;10.40;73.50;;;;;;4977300;28;20276;-65
2022/07/08 15:07:40;;;;;;;;;;;10.40;73.10;;;;;;4984380;28;20319;-65
2022/07/08 15:10:07;;;;;;;;;;;10.40;73.80;;;;;;4987762;28;20000;-66
2022/07/08 15:12:33;;;;;;;;;;;10.40;73.70;;;;;;4977873;28;20357;-65
2022/07/08 15:15:03;;;;;;;;;;;10.30;73.40;;;;;;4982494;28;19921;-65
2022/07/08 15:17:29;;;;;;;;;;;10.30;73.60;;;;;;4977785;28;19996;-66
2022/07/08 15:19:56;;;;;;;;;;;10.30;73.60;;;;;;4983973;28;19939;-65
2022/07/08 15:22:22;;;;;;;;;;;10.30;73.70;;;;;;4984218;28;19910;-65
2022/07/08 15:24:49;;;;;;;;;;;10.30;73.60;;;;;;4980102;28;20348;-64
2022/07/08 15:27:16;;;;;;;;;;;10.30;73.70;;;;;;4979665;28;19938;-65
2022/07/08 15:29:42;;;;;;;;;;;10.30;73.60;;;;;;4976599;28;20320;-66
2022/07/08 15:32:09;;;;;;;;;;;10.20;73.50;;;;;;4984266;28;20349;-65
2022/07/08 15:34:36;;;;;;;;;;;10.20;73.60;;;;;;4981162;28;19910;-65
2022/07/08 15:37:02;;;;;;;;;;;10.20;73.60;;;;;;4960609;28;20410;-65
2022/07/08 15:39:29;;;;;;;;;;;10.20;73.90;;;;;;4955623;28;19953;-66
2022/07/08 15:41:55;;;;;;;;;;;10.20;73.40;;;;;;4974439;28;20281;-65
2022/07/08 15:44:22;;;;;;;;;;;10.20;73.50;;;;;;4972819;28;20395;-66
2022/07/08 15:46:49;;;;;;;;;;;10.20;73.90;;;;;;4954598;28;19925;-66
2022/07/08 15:49:16;;;;;;;;;;;10.20;73.70;;;;;;4978919;28;20436;-65
2022/07/08 15:51:42;;;;;;;;;;;10.20;73.70;;;;;;4974712;28;20000;-65
2022/07/08 15:54:09;;;;;;;;;;;10.20;73.80;;;;;;4974116;28;20273;-65
2022/07/08 15:56:35;;;;;;;;;;;10.20;73.80;;;;;;4977949;28;19925;-65
2022/07/08 15:59:02;;;;;;;;;;;10.20;74.20;;;;;;4980903;28;19910;-65
2022/07/08 16:01:31;;;;;;;;;;;10.20;74.10;;;;;;4973295;28;20356;-65
2022/07/08 16:03:57;;;;;;;;;;;10.20;73.60;;;;;;4975186;28;20376;-66
2022/07/08 16:06:24;;;;;;;;;;;10.20;73.80;;;;;;4974287;28;19929;-65
2022/07/08 16:08:52;;;;;;;;;;;10.20;74.00;;;;;;4970750;28;19997;-65
2022/07/08 16:11:20;;;;;;;;;;;10.10;73.90;;;;;;4977894;28;19924;-65
2022/07/08 16:13:46;;;;;;;;;;;10.10;73.90;;;;;;4981656;28;20012;-66
2022/07/08 16:16:13;;;;;;;;;;;10.10;74.00;;;;;;4958210;28;20061;-65
2022/07/08 16:18:39;;;;;;;;;;;10.10;74.10;;;;;;4968567;28;19910;-66
2022/07/08 16:21:07;;;;;;;;;;;10.00;74.50;;;;;;4975185;28;19911;-65
2022/07/08 16:23:34;;;;;;;;;;;10.00;74.70;;;;;;4980805;28;20371;-65
2022/07/08 16:26:01;;;;;;;;;;;10.00;74.90;;;;;;4977137;28;19916;-65
2022/07/08 16:28:27;;;;;;;;;;;10.00;74.60;;;;;;4973673;28;20287;-64
2022/07/08 16:30:54;;;;;;;;;;;10.00;74.60;;;;;;4973503;28;19918;-64
2022/07/08 16:33:20;;;;;;;;;;;10.00;74.50;;;;;;4972402;28;20292;-66
2022/07/08 16:35:47;;;;;;;;;;;10.10;75.00;;;;;;4974680;28;19932;-66
2022/07/08 16:38:13;;;;;;;;;;;10.10;74.80;;;;;;4969539;28;20427;-65
2022/07/08 16:40:40;;;;;;;;;;;10.10;74.40;;;;;;4973104;28;20364;-65
2022/07/08 16:43:06;;;;;;;;;;;10.00;74.70;;;;;;4976031;28;19906;-65
2022/07/08 16:45:33;;;;;;;;;;;10.00;74.90;;;;;;4976481;28;19920;-66
2022/07/08 16:48:00;;;;;;;;;;;10.00;75.00;;;;;;4970546;28;19965;-66
2022/07/08 16:50:26;;;;;;;;;;;10.00;75.20;;;;;;4975037;28;19917;-66
2022/07/08 16:52:54;;;;;;;;;;;10.00;75.10;;;;;;4973005;28;19913;-65
2022/07/08 16:55:20;;;;;;;;;;;10.00;75.10;;;;;;4973804;28;19910;-65
2022/07/08 16:57:47;;;;;;;;;;;10.00;75.10;;;;;;4957442;28;21078;-65
2022/07/08 17:00:13;;;;;;;;;;;10.00;74.70;;;;;;4954352;28;20265;-66
2022/07/08 17:02:40;;;;;;;;;;;9.90;75.00;;;;;;4953075;28;19921;-65
2022/07/08 17:05:11;;;;;;;;;;;10.00;74.80;;;;;;4954657;28;19906;-66
2022/07/08 17:07:38;;;;;;;;;;;9.90;75.10;;;;;;4956292;28;19918;-66
2022/07/08 17:10:06;;;;;;;;;;;9.90;74.30;;;;;;4954299;28;20856;-66
2022/07/08 17:12:33;;;;;;;;;;;9.80;74.60;;;;;;4953997;28;19968;-67
2022/07/08 17:14:59;;;;;;;;;;;9.90;74.60;;;;;;4955982;28;20332;-66
2022/07/08 17:17:26;;;;;;;;;;;9.90;74.90;;;;;;4957209;28;20040;-66
2022/07/08 17:19:53;;;;;;;;;;;9.90;74.90;;;;;;4952470;28;20357;-66
2022/07/08 17:22:19;;;;;;;;;;;9.80;75.00;;;;;;4957884;28;19918;-65
2022/07/08 17:24:46;;;;;;;;;;;9.90;75.40;;;;;;4964017;28;19910;-66
2022/07/08 19:16:40;;;;;;;;;;;9.20;80.70;;;;;;4988628;28;20009;-66
2022/07/08 19:19:07;;;;;;;;;;;9.20;80.40;;;;;;4998813;28;19913;-67
2022/07/08 19:21:34;;;;;;;;;;;9.20;80.00;;;;;;5000558;28;20004;-66
2022/07/08 19:24:01;;;;;;;;;;;9.20;79.80;;;;;;4998196;28;20283;-66
2022/07/08 19:26:28;;;;;;;;;;;9.20;79.90;;;;;;4994413;28;19909;-67
2022/07/08 19:28:54;;;;;;;;;;;9.20;79.30;;;;;;5005554;28;19932;-66
2022/07/08 19:31:21;;;;;;;;;;;9.10;79.40;;;;;;5000599;28;19922;-66
2022/07/08 19:33:47;;;;;;;;;;;9.10;79.30;;;;;;4996080;28;19910;-66
2022/07/08 19:36:14;;;;;;;;;;;9.10;79.40;;;;;;4995844;28;19956;-66
2022/07/08 19:38:40;;;;;;;;;;;9.10;79.60;;;;;;5000544;28;19914;-66
2022/07/08 19:41:12;;;;;;;;;;;9.10;79.40;;;;;;4971927;28;19920;-67
2022/07/08 19:43:39;;;;;;;;;;;9.20;79.20;;;;;;4990691;28;20340;-66
2022/07/08 19:46:06;;;;;;;;;;;9.20;79.10;;;;;;5005702;28;20000;-67
2022/07/08 19:48:32;;;;;;;;;;;9.10;79.30;;;;;;4999434;28;19914;-68
2022/07/08 19:50:59;;;;;;;;;;;9.10;79.00;;;;;;4984555;28;19925;-67
2022/07/08 19:53:25;;;;;;;;;;;9.20;79.30;;;;;;4988936;28;20191;-65
2022/07/08 19:55:52;;;;;;;;;;;9.20;79.10;;;;;;4993240;28;20388;-66
2022/07/08 19:58:18;;;;;;;;;;;9.10;79.40;;;;;;4991179;28;19910;-66
2022/07/08 20:00:45;;;;;;;;;;;9.10;79.30;;;;;;4990189;28;19918;-63
2022/07/08 20:03:12;;;;;;;;;;;9.10;79.40;;;;;;4991375;28;19913;-65
2022/07/08 20:05:38;;;;;;;;;;;9.10;79.40;;;;;;4988011;28;19918;-66
2022/07/08 20:08:05;;;;;;;;;;;9.10;79.30;;;;;;4990821;28;19917;-67
2022/07/08 20:10:31;;;;;;;;;;;9.00;79.40;;;;;;4989996;28;19914;-66
2022/07/08 20:13:00;;;;;;;;;;;9.00;79.90;;;;;;4989390;28;19921;-65
2022/07/08 20:15:27;;;;;;;;;;;9.00;79.60;;;;;;4994320;28;19924;-66
